sensor_id;sensor_type;location;lat;lon;timestamp;P1;durP1;ratioP1;P2;durP2;ratioP2
12968;SDS011;6549;53.128;8.182;2022-09-13T00:02:02;13.27;;;9.82;;
12968;SDS011;6549;53.128;8.182;2022-09-13T00:05:02;20.33;;;15.18;;
12968;SDS011;6549;53.128;8.182;2022-09-13T00:08:03;18.73;;;14.10;;
12968;SDS011;6549;53.128;8.182;2022-09-13T00:11:04;18.00;;;12.75;;
12968;SDS011;6549;53.128;8.182;2022-09-13T00:14:05;19.77;;;15.77;;
12968;SDS011;6549;53.128;8.182;2022-09-13T00:17:05;16.67;;;12.43;;
12968;SDS011;6549;53.128;8.182;2022-09-13T00:20:05;16.35;;;13.43;;
12968;SDS011;6549;53.128;8.182;2022-09-13T00:23:07;17.17;;;14.13;;
12968;SDS011;6549;53.128;8.182;2022-09-13T00:26:09;16.70;;;13.60;;
12968;SDS011;6549;53.128;8.182;2022-09-13T00:29:12;14.93;;;11.93;;
12968;SDS011;6549;53.128;8.182;2022-09-13T00:32:12;14.95;;;11.55;;
12968;SDS011;6549;53.128;8.182;2022-09-13T00:35:12;13.70;;;11.02;;
12968;SDS011;6549;53.128;8.182;2022-09-13T00:38:12;18.60;;;13.95;;
12968;SDS011;6549;53.128;8.182;2022-09-13T00:41:14;19.65;;;14.85;;
12968;SDS011;6549;53.128;8.182;2022-09-13T00:47:52;16.73;;;13.95;;
12968;SDS011;6549;53.128;8.182;2022-09-13T00:50:56;14.00;;;11.77;;
12968;SDS011;6549;53.128;8.182;2022-09-13T00:53:57;19.08;;;14.80;;
12968;SDS011;6549;53.128;8.182;2022-09-13T00:56:58;17.47;;;14.30;;
12968;SDS011;6549;53.128;8.182;2022-09-13T01:00:14;15.07;;;11.93;;
12968;SDS011;6549;53.128;8.182;2022-09-13T01:03:17;15.77;;;13.10;;
12968;SDS011;6549;53.128;8.182;2022-09-13T01:06:24;14.35;;;11.25;;
12968;SDS011;6549;53.128;8.182;2022-09-13T01:09:32;14.10;;;11.70;;
12968;SDS011;6549;53.128;8.182;2022-09-13T01:12:40;16.67;;;13.88;;
12968;SDS011;6549;53.128;8.182;2022-09-13T01:15:47;18.52;;;14.35;;
12968;SDS011;6549;53.128;8.182;2022-09-13T01:18:48;19.30;;;15.02;;
12968;SDS011;6549;53.128;8.182;2022-09-13T01:28:46;16.48;;;12.15;;
12968;SDS011;6549;53.128;8.182;2022-09-13T01:32:03;13.32;;;11.23;;
12968;SDS011;6549;53.128;8.182;2022-09-13T01:38:52;14.63;;;11.40;;
12968;SDS011;6549;53.128;8.182;2022-09-13T01:42:01;12.52;;;10.23;;
12968;SDS011;6549;53.128;8.182;2022-09-13T01:51:58;13.85;;;11.35;;
12968;SDS011;6549;53.128;8.182;2022-09-13T01:55:06;12.15;;;9.90;;
12968;SDS011;6549;53.128;8.182;2022-09-13T01:58:27;13.60;;;11.18;;
12968;SDS011;6549;53.128;8.182;2022-09-13T02:01:35;19.15;;;14.05;;
12968;SDS011;6549;53.128;8.182;2022-09-13T02:04:42;13.50;;;10.65;;
12968;SDS011;6549;53.128;8.182;2022-09-13T02:07:49;17.60;;;13.75;;
12968;SDS011;6549;53.128;8.182;2022-09-13T02:10:57;14.85;;;12.23;;
12968;SDS011;6549;53.128;8.182;2022-09-13T02:17:08;18.25;;;14.32;;
12968;SDS011;6549;53.128;8.182;2022-09-13T02:20:19;17.88;;;12.45;;
12968;SDS011;6549;53.128;8.182;2022-09-13T02:23:27;15.77;;;11.50;;
12968;SDS011;6549;53.128;8.182;2022-09-13T02:26:33;17.17;;;12.70;;
12968;SDS011;6549;53.128;8.182;2022-09-13T02:29:38;17.65;;;13.90;;
12968;SDS011;6549;53.128;8.182;2022-09-13T02:32:42;14.48;;;11.40;;
12968;SDS011;6549;53.128;8.182;2022-09-13T02:35:50;19.90;;;14.48;;
12968;SDS011;6549;53.128;8.182;2022-09-13T02:39:14;17.92;;;12.38;;
12968;SDS011;6549;53.128;8.182;2022-09-13T02:42:16;16.50;;;13.10;;
12968;SDS011;6549;53.128;8.182;2022-09-13T02:45:20;15.23;;;11.63;;
12968;SDS011;6549;53.128;8.182;2022-09-13T02:52:19;16.57;;;12.57;;
12968;SDS011;6549;53.128;8.182;2022-09-13T03:01:50;15.55;;;12.95;;
12968;SDS011;6549;53.128;8.182;2022-09-13T03:04:57;14.75;;;10.95;;
12968;SDS011;6549;53.128;8.182;2022-09-13T03:07:59;17.67;;;12.68;;
12968;SDS011;6549;53.128;8.182;2022-09-13T03:14:16;16.23;;;12.93;;
12968;SDS011;6549;53.128;8.182;2022-09-13T03:21:03;18.52;;;12.93;;
12968;SDS011;6549;53.128;8.182;2022-09-13T03:30:37;16.85;;;13.23;;
12968;SDS011;6549;53.128;8.182;2022-09-13T03:33:46;19.67;;;15.05;;
12968;SDS011;6549;53.128;8.182;2022-09-13T03:36:53;19.15;;;14.48;;
12968;SDS011;6549;53.128;8.182;2022-09-13T03:40:06;15.85;;;12.00;;
12968;SDS011;6549;53.128;8.182;2022-09-13T03:46:21;16.92;;;11.85;;
12968;SDS011;6549;53.128;8.182;2022-09-13T03:49:28;19.58;;;13.82;;
12968;SDS011;6549;53.128;8.182;2022-09-13T03:52:30;18.75;;;13.73;;
12968;SDS011;6549;53.128;8.182;2022-09-13T03:55:31;18.77;;;14.50;;
12968;SDS011;6549;53.128;8.182;2022-09-13T03:58:33;19.42;;;14.88;;
12968;SDS011;6549;53.128;8.182;2022-09-13T04:01:34;16.85;;;13.68;;
12968;SDS011;6549;53.128;8.182;2022-09-13T04:04:34;22.23;;;15.10;;
12968;SDS011;6549;53.128;8.182;2022-09-13T04:07:34;21.25;;;15.95;;
12968;SDS011;6549;53.128;8.182;2022-09-13T04:10:35;17.73;;;14.45;;
12968;SDS011;6549;53.128;8.182;2022-09-13T04:13:36;19.40;;;14.27;;
12968;SDS011;6549;53.128;8.182;2022-09-13T04:16:37;16.55;;;13.10;;
12968;SDS011;6549;53.128;8.182;2022-09-13T04:19:38;19.95;;;14.32;;
12968;SDS011;6549;53.128;8.182;2022-09-13T04:22:39;19.77;;;14.13;;
12968;SDS011;6549;53.128;8.182;2022-09-13T04:25:39;17.98;;;13.90;;
12968;SDS011;6549;53.128;8.182;2022-09-13T04:28:40;19.75;;;14.90;;
12968;SDS011;6549;53.128;8.182;2022-09-13T04:31:40;18.33;;;13.15;;
12968;SDS011;6549;53.128;8.182;2022-09-13T04:34:40;20.60;;;14.15;;
12968;SDS011;6549;53.128;8.182;2022-09-13T04:37:41;20.83;;;15.63;;
12968;SDS011;6549;53.128;8.182;2022-09-13T04:40:41;20.75;;;15.43;;
12968;SDS011;6549;53.128;8.182;2022-09-13T04:43:42;20.65;;;15.05;;
12968;SDS011;6549;53.128;8.182;2022-09-13T04:46:45;23.33;;;15.43;;
12968;SDS011;6549;53.128;8.182;2022-09-13T04:49:47;18.27;;;14.38;;
12968;SDS011;6549;53.128;8.182;2022-09-13T04:52:47;17.77;;;14.00;;
12968;SDS011;6549;53.128;8.182;2022-09-13T04:55:47;21.13;;;14.70;;
12968;SDS011;6549;53.128;8.182;2022-09-13T04:58:51;21.42;;;15.57;;
12968;SDS011;6549;53.128;8.182;2022-09-13T05:01:52;21.83;;;16.27;;
12968;SDS011;6549;53.128;8.182;2022-09-13T05:04:53;22.55;;;15.90;;
12968;SDS011;6549;53.128;8.182;2022-09-13T05:07:53;22.88;;;16.52;;
12968;SDS011;6549;53.128;8.182;2022-09-13T05:10:54;22.23;;;15.88;;
12968;SDS011;6549;53.128;8.182;2022-09-13T05:13:55;19.20;;;14.43;;
12968;SDS011;6549;53.128;8.182;2022-09-13T05:16:57;21.90;;;17.20;;
12968;SDS011;6549;53.128;8.182;2022-09-13T05:19:58;22.65;;;16.17;;
12968;SDS011;6549;53.128;8.182;2022-09-13T05:23:17;22.23;;;14.70;;
12968;SDS011;6549;53.128;8.182;2022-09-13T05:26:38;22.73;;;17.20;;
12968;SDS011;6549;53.128;8.182;2022-09-13T05:29:59;20.02;;;14.93;;
12968;SDS011;6549;53.128;8.182;2022-09-13T05:32:59;22.73;;;16.77;;
12968;SDS011;6549;53.128;8.182;2022-09-13T05:36:00;21.63;;;15.90;;
12968;SDS011;6549;53.128;8.182;2022-09-13T05:39:00;18.38;;;14.70;;
12968;SDS011;6549;53.128;8.182;2022-09-13T05:42:02;18.90;;;14.80;;
12968;SDS011;6549;53.128;8.182;2022-09-13T05:45:02;19.88;;;14.70;;
12968;SDS011;6549;53.128;8.182;2022-09-13T05:48:03;25.90;;;17.83;;
12968;SDS011;6549;53.128;8.182;2022-09-13T05:51:04;22.08;;;15.88;;
12968;SDS011;6549;53.128;8.182;2022-09-13T05:54:10;21.08;;;15.35;;
12968;SDS011;6549;53.128;8.182;2022-09-13T05:57:11;17.60;;;13.30;;
12968;SDS011;6549;53.128;8.182;2022-09-13T06:00:12;21.48;;;16.98;;
12968;SDS011;6549;53.128;8.182;2022-09-13T06:03:12;19.98;;;15.10;;
12968;SDS011;6549;53.128;8.182;2022-09-13T06:06:13;20.98;;;15.20;;
12968;SDS011;6549;53.128;8.182;2022-09-13T06:09:13;17.58;;;13.38;;
12968;SDS011;6549;53.128;8.182;2022-09-13T06:12:13;21.10;;;15.30;;
12968;SDS011;6549;53.128;8.182;2022-09-13T06:15:14;19.50;;;15.73;;
12968;SDS011;6549;53.128;8.182;2022-09-13T06:18:14;21.52;;;16.05;;
12968;SDS011;6549;53.128;8.182;2022-09-13T06:21:16;22.88;;;17.08;;
12968;SDS011;6549;53.128;8.182;2022-09-13T06:24:21;22.25;;;17.40;;
12968;SDS011;6549;53.128;8.182;2022-09-13T06:27:21;21.58;;;15.57;;
12968;SDS011;6549;53.128;8.182;2022-09-13T06:30:21;21.25;;;15.95;;
12968;SDS011;6549;53.128;8.182;2022-09-13T06:33:22;24.20;;;17.63;;
12968;SDS011;6549;53.128;8.182;2022-09-13T06:36:22;22.52;;;17.17;;
12968;SDS011;6549;53.128;8.182;2022-09-13T06:39:23;23.27;;;16.88;;
12968;SDS011;6549;53.128;8.182;2022-09-13T06:42:23;26.67;;;18.55;;
12968;SDS011;6549;53.128;8.182;2022-09-13T06:45:23;35.00;;;21.02;;
12968;SDS011;6549;53.128;8.182;2022-09-13T06:48:24;23.38;;;17.73;;
12968;SDS011;6549;53.128;8.182;2022-09-13T06:51:24;23.00;;;16.75;;
12968;SDS011;6549;53.128;8.182;2022-09-13T06:54:25;28.45;;;20.77;;
12968;SDS011;6549;53.128;8.182;2022-09-13T06:57:25;22.23;;;16.38;;
12968;SDS011;6549;53.128;8.182;2022-09-13T07:00:29;22.48;;;17.13;;
12968;SDS011;6549;53.128;8.182;2022-09-13T07:03:29;26.17;;;20.63;;
12968;SDS011;6549;53.128;8.182;2022-09-13T07:06:31;24.88;;;18.42;;
12968;SDS011;6549;53.128;8.182;2022-09-13T07:09:32;26.73;;;17.75;;
12968;SDS011;6549;53.128;8.182;2022-09-13T07:12:33;20.65;;;15.68;;
12968;SDS011;6549;53.128;8.182;2022-09-13T07:15:35;20.40;;;15.23;;
12968;SDS011;6549;53.128;8.182;2022-09-13T07:18:35;24.70;;;18.02;;
12968;SDS011;6549;53.128;8.182;2022-09-13T07:21:36;16.25;;;12.48;;
12968;SDS011;6549;53.128;8.182;2022-09-13T07:24:36;18.00;;;13.88;;
12968;SDS011;6549;53.128;8.182;2022-09-13T07:27:37;22.02;;;15.90;;
12968;SDS011;6549;53.128;8.182;2022-09-13T07:30:37;22.08;;;16.52;;
12968;SDS011;6549;53.128;8.182;2022-09-13T07:33:39;18.13;;;13.02;;
12968;SDS011;6549;53.128;8.182;2022-09-13T07:36:40;18.70;;;14.52;;
12968;SDS011;6549;53.128;8.182;2022-09-13T07:39:41;18.00;;;13.63;;
12968;SDS011;6549;53.128;8.182;2022-09-13T07:42:41;21.15;;;15.00;;
12968;SDS011;6549;53.128;8.182;2022-09-13T07:45:41;15.48;;;11.50;;
12968;SDS011;6549;53.128;8.182;2022-09-13T07:48:42;15.57;;;12.00;;
12968;SDS011;6549;53.128;8.182;2022-09-13T07:51:44;14.52;;;8.52;;
12968;SDS011;6549;53.128;8.182;2022-09-13T07:54:44;11.38;;;7.68;;
12968;SDS011;6549;53.128;8.182;2022-09-13T07:57:45;9.88;;;6.53;;
12968;SDS011;6549;53.128;8.182;2022-09-13T08:00:46;10.93;;;6.57;;
12968;SDS011;6549;53.128;8.182;2022-09-13T08:06:57;8.40;;;5.10;;
12968;SDS011;6549;53.128;8.182;2022-09-13T08:09:57;9.05;;;5.20;;
12968;SDS011;6549;53.128;8.182;2022-09-13T08:12:58;8.88;;;4.43;;
12968;SDS011;6549;53.128;8.182;2022-09-13T08:16:03;7.03;;;5.05;;
12968;SDS011;6549;53.128;8.182;2022-09-13T08:19:05;10.10;;;5.43;;
12968;SDS011;6549;53.128;8.182;2022-09-13T08:25:07;5.50;;;3.50;;
12968;SDS011;6549;53.128;8.182;2022-09-13T08:28:08;8.70;;;3.40;;
12968;SDS011;6549;53.128;8.182;2022-09-13T08:31:14;7.05;;;4.05;;
12968;SDS011;6549;53.128;8.182;2022-09-13T08:34:19;4.63;;;2.60;;
12968;SDS011;6549;53.128;8.182;2022-09-13T08:37:20;5.43;;;2.38;;
12968;SDS011;6549;53.128;8.182;2022-09-13T08:40:21;5.70;;;2.35;;
12968;SDS011;6549;53.128;8.182;2022-09-13T08:46:40;4.85;;;1.90;;
12968;SDS011;6549;53.128;8.182;2022-09-13T08:49:44;3.75;;;1.50;;
12968;SDS011;6549;53.128;8.182;2022-09-13T08:56:31;5.05;;;1.50;;
12968;SDS011;6549;53.128;8.182;2022-09-13T09:03:19;7.20;;;1.70;;
12968;SDS011;6549;53.128;8.182;2022-09-13T09:06:26;7.57;;;1.55;;
12968;SDS011;6549;53.128;8.182;2022-09-13T09:09:27;6.53;;;1.67;;
12968;SDS011;6549;53.128;8.182;2022-09-13T09:12:44;6.28;;;1.50;;
12968;SDS011;6549;53.128;8.182;2022-09-13T09:15:49;3.90;;;1.50;;
12968;SDS011;6549;53.128;8.182;2022-09-13T09:18:53;5.95;;;1.50;;
12968;SDS011;6549;53.128;8.182;2022-09-13T09:21:56;5.40;;;1.48;;
12968;SDS011;6549;53.128;8.182;2022-09-13T09:24:58;7.70;;;1.50;;
12968;SDS011;6549;53.128;8.182;2022-09-13T09:27:59;5.53;;;1.20;;
12968;SDS011;6549;53.128;8.182;2022-09-13T09:31:21;5.50;;;1.40;;
12968;SDS011;6549;53.128;8.182;2022-09-13T09:41:24;5.15;;;1.20;;
12968;SDS011;6549;53.128;8.182;2022-09-13T09:44:28;7.77;;;1.30;;
12968;SDS011;6549;53.128;8.182;2022-09-13T09:47:34;4.72;;;1.30;;
12968;SDS011;6549;53.128;8.182;2022-09-13T09:50:44;3.47;;;1.10;;
12968;SDS011;6549;53.128;8.182;2022-09-13T09:53:49;5.68;;;1.10;;
12968;SDS011;6549;53.128;8.182;2022-09-13T09:56:56;6.25;;;1.42;;
12968;SDS011;6549;53.128;8.182;2022-09-13T10:00:09;6.07;;;1.20;;
12968;SDS011;6549;53.128;8.182;2022-09-13T10:03:18;4.47;;;1.20;;
12968;SDS011;6549;53.128;8.182;2022-09-13T10:06:23;6.45;;;1.27;;
12968;SDS011;6549;53.128;8.182;2022-09-13T10:09:27;6.70;;;1.20;;
12968;SDS011;6549;53.128;8.182;2022-09-13T10:12:28;3.78;;;1.00;;
12968;SDS011;6549;53.128;8.182;2022-09-13T10:15:31;5.47;;;1.40;;
12968;SDS011;6549;53.128;8.182;2022-09-13T10:18:34;2.65;;;0.80;;
12968;SDS011;6549;53.128;8.182;2022-09-13T10:21:36;3.10;;;0.80;;
12968;SDS011;6549;53.128;8.182;2022-09-13T10:24:36;6.38;;;1.30;;
12968;SDS011;6549;53.128;8.182;2022-09-13T10:27:38;2.45;;;0.95;;
12968;SDS011;6549;53.128;8.182;2022-09-13T10:30:48;5.22;;;1.13;;
12968;SDS011;6549;53.128;8.182;2022-09-13T10:33:57;4.50;;;1.10;;
12968;SDS011;6549;53.128;8.182;2022-09-13T10:40:07;7.25;;;1.13;;
12968;SDS011;6549;53.128;8.182;2022-09-13T10:43:37;6.38;;;1.27;;
12968;SDS011;6549;53.128;8.182;2022-09-13T10:46:37;6.97;;;1.40;;
12968;SDS011;6549;53.128;8.182;2022-09-13T10:49:46;4.15;;;1.10;;
12968;SDS011;6549;53.128;8.182;2022-09-13T10:52:50;3.92;;;1.17;;
12968;SDS011;6549;53.128;8.182;2022-09-13T10:55:52;3.92;;;1.05;;
12968;SDS011;6549;53.128;8.182;2022-09-13T11:05:47;4.38;;;1.00;;
12968;SDS011;6549;53.128;8.182;2022-09-13T11:12:17;3.08;;;0.90;;
12968;SDS011;6549;53.128;8.182;2022-09-13T11:35:15;7.03;;;1.20;;
12968;SDS011;6549;53.128;8.182;2022-09-13T11:38:34;4.32;;;1.05;;
12968;SDS011;6549;53.128;8.182;2022-09-13T11:41:57;5.15;;;0.90;;
12968;SDS011;6549;53.128;8.182;2022-09-13T11:48:20;6.65;;;1.40;;
12968;SDS011;6549;53.128;8.182;2022-09-13T11:55:17;6.78;;;1.23;;
12968;SDS011;6549;53.128;8.182;2022-09-13T11:58:27;5.45;;;1.08;;
12968;SDS011;6549;53.128;8.182;2022-09-13T12:01:35;5.60;;;0.90;;
12968;SDS011;6549;53.128;8.182;2022-09-13T12:04:56;3.70;;;0.98;;
12968;SDS011;6549;53.128;8.182;2022-09-13T12:11:10;4.05;;;1.00;;
12968;SDS011;6549;53.128;8.182;2022-09-13T12:14:16;1.02;;;0.60;;
12968;SDS011;6549;53.128;8.182;2022-09-13T12:17:28;3.72;;;1.00;;
12968;SDS011;6549;53.128;8.182;2022-09-13T12:20:34;5.95;;;1.13;;
12968;SDS011;6549;53.128;8.182;2022-09-13T12:23:41;4.32;;;1.35;;
12968;SDS011;6549;53.128;8.182;2022-09-13T12:30:20;4.60;;;0.90;;
12968;SDS011;6549;53.128;8.182;2022-09-13T12:33:22;3.58;;;1.13;;
12968;SDS011;6549;53.128;8.182;2022-09-13T12:46:54;6.60;;;1.40;;
12968;SDS011;6549;53.128;8.182;2022-09-13T12:50:14;4.80;;;1.13;;
12968;SDS011;6549;53.128;8.182;2022-09-13T12:59:59;7.07;;;1.73;;
12968;SDS011;6549;53.128;8.182;2022-09-13T13:06:28;5.95;;;1.23;;
12968;SDS011;6549;53.128;8.182;2022-09-13T13:09:40;4.88;;;1.10;;
12968;SDS011;6549;53.128;8.182;2022-09-13T13:12:42;6.20;;;1.20;;
12968;SDS011;6549;53.128;8.182;2022-09-13T13:18:44;4.27;;;1.10;;
12968;SDS011;6549;53.128;8.182;2022-09-13T13:21:47;6.82;;;1.10;;
12968;SDS011;6549;53.128;8.182;2022-09-13T13:24:48;3.70;;;0.80;;
12968;SDS011;6549;53.128;8.182;2022-09-13T13:27:48;3.65;;;1.02;;
12968;SDS011;6549;53.128;8.182;2022-09-13T13:30:51;4.75;;;1.02;;
12968;SDS011;6549;53.128;8.182;2022-09-13T13:40:11;5.03;;;1.10;;
12968;SDS011;6549;53.128;8.182;2022-09-13T13:43:28;5.50;;;1.30;;
12968;SDS011;6549;53.128;8.182;2022-09-13T13:46:31;5.45;;;1.48;;
12968;SDS011;6549;53.128;8.182;2022-09-13T13:52:38;2.67;;;0.80;;
12968;SDS011;6549;53.128;8.182;2022-09-13T13:56:03;3.95;;;1.08;;
12968;SDS011;6549;53.128;8.182;2022-09-13T13:59:20;9.15;;;1.38;;
12968;SDS011;6549;53.128;8.182;2022-09-13T14:02:30;3.42;;;0.88;;
12968;SDS011;6549;53.128;8.182;2022-09-13T14:09:19;2.63;;;0.98;;
12968;SDS011;6549;53.128;8.182;2022-09-13T14:19:31;5.72;;;1.30;;
12968;SDS011;6549;53.128;8.182;2022-09-13T14:22:39;5.32;;;1.10;;
12968;SDS011;6549;53.128;8.182;2022-09-13T14:25:40;6.63;;;1.25;;
12968;SDS011;6549;53.128;8.182;2022-09-13T14:28:40;5.70;;;1.25;;
12968;SDS011;6549;53.128;8.182;2022-09-13T14:31:43;4.38;;;1.10;;
12968;SDS011;6549;53.128;8.182;2022-09-13T14:34:53;9.05;;;1.48;;
12968;SDS011;6549;53.128;8.182;2022-09-13T14:38:08;6.97;;;1.10;;
12968;SDS011;6549;53.128;8.182;2022-09-13T14:41:14;5.90;;;1.40;;
12968;SDS011;6549;53.128;8.182;2022-09-13T14:44:22;5.70;;;1.20;;
12968;SDS011;6549;53.128;8.182;2022-09-13T14:47:26;4.63;;;1.30;;
12968;SDS011;6549;53.128;8.182;2022-09-13T14:50:32;5.15;;;1.00;;
12968;SDS011;6549;53.128;8.182;2022-09-13T14:53:39;6.75;;;1.38;;
12968;SDS011;6549;53.128;8.182;2022-09-13T14:56:46;9.57;;;1.50;;
12968;SDS011;6549;53.128;8.182;2022-09-13T14:59:51;5.78;;;1.20;;
12968;SDS011;6549;53.128;8.182;2022-09-13T15:02:58;6.03;;;1.20;;
12968;SDS011;6549;53.128;8.182;2022-09-13T15:06:02;4.88;;;1.15;;
12968;SDS011;6549;53.128;8.182;2022-09-13T15:12:22;4.55;;;1.33;;
12968;SDS011;6549;53.128;8.182;2022-09-13T15:18:31;6.57;;;1.40;;
12968;SDS011;6549;53.128;8.182;2022-09-13T15:21:34;7.90;;;1.20;;
12968;SDS011;6549;53.128;8.182;2022-09-13T15:24:35;6.03;;;1.52;;
12968;SDS011;6549;53.128;8.182;2022-09-13T15:27:43;5.75;;;1.27;;
12968;SDS011;6549;53.128;8.182;2022-09-13T15:30:46;6.68;;;1.30;;
12968;SDS011;6549;53.128;8.182;2022-09-13T15:33:46;6.78;;;1.10;;
12968;SDS011;6549;53.128;8.182;2022-09-13T15:37:09;11.20;;;1.77;;
12968;SDS011;6549;53.128;8.182;2022-09-13T15:40:12;4.40;;;1.15;;
12968;SDS011;6549;53.128;8.182;2022-09-13T15:43:13;6.35;;;1.38;;
12968;SDS011;6549;53.128;8.182;2022-09-13T15:46:14;5.72;;;1.30;;
12968;SDS011;6549;53.128;8.182;2022-09-13T15:49:16;4.63;;;1.20;;
12968;SDS011;6549;53.128;8.182;2022-09-13T15:52:19;5.97;;;1.20;;
12968;SDS011;6549;53.128;8.182;2022-09-13T15:55:20;5.97;;;1.35;;
12968;SDS011;6549;53.128;8.182;2022-09-13T15:58:21;5.20;;;1.20;;
12968;SDS011;6549;53.128;8.182;2022-09-13T16:01:21;6.55;;;1.23;;
12968;SDS011;6549;53.128;8.182;2022-09-13T16:04:22;6.38;;;1.23;;
12968;SDS011;6549;53.128;8.182;2022-09-13T16:07:23;6.38;;;1.40;;
12968;SDS011;6549;53.128;8.182;2022-09-13T16:10:24;6.75;;;1.30;;
12968;SDS011;6549;53.128;8.182;2022-09-13T16:13:25;6.20;;;1.55;;
12968;SDS011;6549;53.128;8.182;2022-09-13T16:16:25;3.63;;;1.10;;
12968;SDS011;6549;53.128;8.182;2022-09-13T16:19:25;6.03;;;1.30;;
12968;SDS011;6549;53.128;8.182;2022-09-13T16:22:26;6.03;;;1.40;;
12968;SDS011;6549;53.128;8.182;2022-09-13T16:25:26;4.93;;;1.20;;
12968;SDS011;6549;53.128;8.182;2022-09-13T16:28:27;6.53;;;1.27;;
12968;SDS011;6549;53.128;8.182;2022-09-13T16:31:27;5.05;;;1.20;;
12968;SDS011;6549;53.128;8.182;2022-09-13T16:34:27;2.95;;;1.00;;
12968;SDS011;6549;53.128;8.182;2022-09-13T16:37:28;4.88;;;1.60;;
12968;SDS011;6549;53.128;8.182;2022-09-13T16:40:28;5.88;;;1.20;;
12968;SDS011;6549;53.128;8.182;2022-09-13T16:43:28;4.38;;;1.10;;
12968;SDS011;6549;53.128;8.182;2022-09-13T16:46:29;4.75;;;1.10;;
12968;SDS011;6549;53.128;8.182;2022-09-13T16:49:29;3.92;;;1.15;;
12968;SDS011;6549;53.128;8.182;2022-09-13T16:52:30;7.18;;;1.10;;
12968;SDS011;6549;53.128;8.182;2022-09-13T16:55:30;3.78;;;1.13;;
12968;SDS011;6549;53.128;8.182;2022-09-13T16:58:30;2.30;;;0.98;;
12968;SDS011;6549;53.128;8.182;2022-09-13T17:01:31;3.15;;;1.10;;
12968;SDS011;6549;53.128;8.182;2022-09-13T17:04:31;5.03;;;1.25;;
12968;SDS011;6549;53.128;8.182;2022-09-13T17:07:32;5.53;;;0.95;;
12968;SDS011;6549;53.128;8.182;2022-09-13T17:10:32;5.28;;;0.90;;
12968;SDS011;6549;53.128;8.182;2022-09-13T17:13:32;5.47;;;1.20;;
12968;SDS011;6549;53.128;8.182;2022-09-13T17:16:34;6.75;;;1.20;;
12968;SDS011;6549;53.128;8.182;2022-09-13T17:19:37;4.97;;;1.17;;
12968;SDS011;6549;53.128;8.182;2022-09-13T17:22:37;4.97;;;0.98;;
12968;SDS011;6549;53.128;8.182;2022-09-13T17:25:45;3.47;;;1.00;;
12968;SDS011;6549;53.128;8.182;2022-09-13T17:28:47;5.60;;;1.20;;
12968;SDS011;6549;53.128;8.182;2022-09-13T17:31:47;4.88;;;0.90;;
12968;SDS011;6549;53.128;8.182;2022-09-13T17:34:48;5.30;;;1.30;;
12968;SDS011;6549;53.128;8.182;2022-09-13T17:37:48;5.40;;;1.20;;
12968;SDS011;6549;53.128;8.182;2022-09-13T17:40:57;5.32;;;1.25;;
12968;SDS011;6549;53.128;8.182;2022-09-13T17:44:01;4.15;;;1.20;;
12968;SDS011;6549;53.128;8.182;2022-09-13T17:47:02;3.00;;;1.20;;
12968;SDS011;6549;53.128;8.182;2022-09-13T17:50:02;3.78;;;1.25;;
12968;SDS011;6549;53.128;8.182;2022-09-13T17:53:03;5.78;;;1.10;;
12968;SDS011;6549;53.128;8.182;2022-09-13T17:56:04;5.00;;;1.00;;
12968;SDS011;6549;53.128;8.182;2022-09-13T17:59:05;4.03;;;1.00;;
12968;SDS011;6549;53.128;8.182;2022-09-13T18:02:33;4.05;;;1.42;;
12968;SDS011;6549;53.128;8.182;2022-09-13T18:05:33;4.00;;;1.20;;
12968;SDS011;6549;53.128;8.182;2022-09-13T18:08:34;7.55;;;1.23;;
12968;SDS011;6549;53.128;8.182;2022-09-13T18:11:36;3.45;;;0.93;;
12968;SDS011;6549;53.128;8.182;2022-09-13T18:14:37;5.70;;;1.08;;
12968;SDS011;6549;53.128;8.182;2022-09-13T18:17:38;3.28;;;1.00;;
12968;SDS011;6549;53.128;8.182;2022-09-13T18:20:38;2.65;;;1.00;;
12968;SDS011;6549;53.128;8.182;2022-09-13T18:23:45;4.05;;;1.20;;
12968;SDS011;6549;53.128;8.182;2022-09-13T18:26:47;4.07;;;1.10;;
12968;SDS011;6549;53.128;8.182;2022-09-13T18:29:47;4.63;;;1.15;;
12968;SDS011;6549;53.128;8.182;2022-09-13T18:32:47;3.92;;;1.02;;
12968;SDS011;6549;53.128;8.182;2022-09-13T18:36:04;4.63;;;1.42;;
12968;SDS011;6549;53.128;8.182;2022-09-13T18:39:07;4.05;;;1.10;;
12968;SDS011;6549;53.128;8.182;2022-09-13T18:42:14;4.90;;;1.13;;
12968;SDS011;6549;53.128;8.182;2022-09-13T18:45:14;4.68;;;1.20;;
12968;SDS011;6549;53.128;8.182;2022-09-13T18:48:14;8.85;;;1.20;;
12968;SDS011;6549;53.128;8.182;2022-09-13T18:51:16;6.20;;;1.27;;
12968;SDS011;6549;53.128;8.182;2022-09-13T18:54:17;2.47;;;0.90;;
12968;SDS011;6549;53.128;8.182;2022-09-13T18:57:17;4.65;;;1.20;;
12968;SDS011;6549;53.128;8.182;2022-09-13T19:00:18;3.63;;;1.40;;
12968;SDS011;6549;53.128;8.182;2022-09-13T19:03:18;4.00;;;1.45;;
12968;SDS011;6549;53.128;8.182;2022-09-13T19:06:20;4.35;;;1.60;;
12968;SDS011;6549;53.128;8.182;2022-09-13T19:09:22;4.15;;;1.20;;
12968;SDS011;6549;53.128;8.182;2022-09-13T19:12:23;3.13;;;1.30;;
12968;SDS011;6549;53.128;8.182;2022-09-13T19:15:23;2.58;;;1.02;;
12968;SDS011;6549;53.128;8.182;2022-09-13T19:18:23;4.05;;;1.30;;
12968;SDS011;6549;53.128;8.182;2022-09-13T19:21:28;3.70;;;1.08;;
12968;SDS011;6549;53.128;8.182;2022-09-13T19:24:30;2.30;;;1.00;;
12968;SDS011;6549;53.128;8.182;2022-09-13T19:27:30;3.58;;;1.20;;
12968;SDS011;6549;53.128;8.182;2022-09-13T19:30:32;1.98;;;1.00;;
12968;SDS011;6549;53.128;8.182;2022-09-13T19:33:33;4.22;;;1.15;;
12968;SDS011;6549;53.128;8.182;2022-09-13T19:36:36;1.95;;;0.90;;
12968;SDS011;6549;53.128;8.182;2022-09-13T19:42:38;3.30;;;1.10;;
12968;SDS011;6549;53.128;8.182;2022-09-13T19:45:38;1.70;;;1.00;;
12968;SDS011;6549;53.128;8.182;2022-09-13T19:48:40;3.20;;;1.23;;
12968;SDS011;6549;53.128;8.182;2022-09-13T19:51:45;2.80;;;1.40;;
12968;SDS011;6549;53.128;8.182;2022-09-13T19:54:45;5.65;;;1.90;;
12968;SDS011;6549;53.128;8.182;2022-09-13T19:57:45;2.95;;;1.30;;
12968;SDS011;6549;53.128;8.182;2022-09-13T20:00:46;2.72;;;1.33;;
12968;SDS011;6549;53.128;8.182;2022-09-13T20:03:50;2.20;;;1.30;;
12968;SDS011;6549;53.128;8.182;2022-09-13T20:06:55;3.50;;;1.50;;
12968;SDS011;6549;53.128;8.182;2022-09-13T20:09:55;3.28;;;1.33;;
12968;SDS011;6549;53.128;8.182;2022-09-13T20:12:56;3.47;;;1.40;;
12968;SDS011;6549;53.128;8.182;2022-09-13T20:15:57;1.95;;;1.33;;
12968;SDS011;6549;53.128;8.182;2022-09-13T20:18:57;5.03;;;1.30;;
12968;SDS011;6549;53.128;8.182;2022-09-13T20:21:58;3.72;;;1.30;;
12968;SDS011;6549;53.128;8.182;2022-09-13T20:24:58;2.55;;;1.20;;
12968;SDS011;6549;53.128;8.182;2022-09-13T20:27:58;2.35;;;1.00;;
12968;SDS011;6549;53.128;8.182;2022-09-13T20:30:59;3.22;;;1.17;;
12968;SDS011;6549;53.128;8.182;2022-09-13T20:34:01;1.83;;;1.00;;
12968;SDS011;6549;53.128;8.182;2022-09-13T20:37:04;2.38;;;1.05;;
12968;SDS011;6549;53.128;8.182;2022-09-13T20:40:04;3.03;;;1.30;;
12968;SDS011;6549;53.128;8.182;2022-09-13T20:43:05;2.38;;;1.17;;
12968;SDS011;6549;53.128;8.182;2022-09-13T20:46:06;4.38;;;1.60;;
12968;SDS011;6549;53.128;8.182;2022-09-13T20:49:10;3.30;;;1.30;;
12968;SDS011;6549;53.128;8.182;2022-09-13T20:52:10;2.50;;;0.90;;
12968;SDS011;6549;53.128;8.182;2022-09-13T20:55:13;2.60;;;1.13;;
12968;SDS011;6549;53.128;8.182;2022-09-13T20:58:14;1.88;;;0.80;;
12968;SDS011;6549;53.128;8.182;2022-09-13T21:01:15;2.60;;;1.17;;
12968;SDS011;6549;53.128;8.182;2022-09-13T21:04:20;3.10;;;1.20;;
12968;SDS011;6549;53.128;8.182;2022-09-13T21:07:21;5.18;;;1.33;;
12968;SDS011;6549;53.128;8.182;2022-09-13T21:11:01;2.67;;;1.20;;
12968;SDS011;6549;53.128;8.182;2022-09-13T21:14:05;1.15;;;1.05;;
12968;SDS011;6549;53.128;8.182;2022-09-13T21:17:07;2.17;;;1.02;;
12968;SDS011;6549;53.128;8.182;2022-09-13T21:20:07;3.88;;;1.17;;
12968;SDS011;6549;53.128;8.182;2022-09-13T21:23:08;3.33;;;1.30;;
12968;SDS011;6549;53.128;8.182;2022-09-13T21:26:09;3.20;;;1.50;;